sensor_id;sensor_type;location;lat;lon;timestamp;P1;durP1;ratioP1;P2;durP2;ratioP2
40871;SDS011;26591;43.264;26.940;2022-10-16T00:00:54;21.65;;;13.55;;
40871;SDS011;26591;43.264;26.940;2022-10-16T00:03:20;21.42;;;12.68;;
40871;SDS011;26591;43.264;26.940;2022-10-16T00:05:45;20.60;;;11.65;;
40871;SDS011;26591;43.264;26.940;2022-10-16T00:08:11;18.83;;;12.32;;
40871;SDS011;26591;43.264;26.940;2022-10-16T00:13:40;17.08;;;11.23;;
40871;SDS011;26591;43.264;26.940;2022-10-16T00:16:07;19.98;;;11.77;;
40871;SDS011;26591;43.264;26.940;2022-10-16T00:18:33;26.67;;;12.02;;
40871;SDS011;26591;43.264;26.940;2022-10-16T00:23:44;18.05;;;11.52;;
40871;SDS011;26591;43.264;26.940;2022-10-16T00:26:11;17.38;;;11.23;;
40871;SDS011;26591;43.264;26.940;2022-10-16T00:28:41;13.68;;;9.77;;
40871;SDS011;26591;43.264;26.940;2022-10-16T00:31:08;20.08;;;10.45;;
40871;SDS011;26591;43.264;26.940;2022-10-16T00:33:36;18.42;;;10.55;;
40871;SDS011;26591;43.264;26.940;2022-10-16T00:36:03;19.10;;;10.88;;
40871;SDS011;26591;43.264;26.940;2022-10-16T00:38:30;14.95;;;9.90;;
40871;SDS011;26591;43.264;26.940;2022-10-16T00:40:56;18.63;;;10.05;;
40871;SDS011;26591;43.264;26.940;2022-10-16T00:46:19;16.42;;;10.38;;
40871;SDS011;26591;43.264;26.940;2022-10-16T00:49:04;25.95;;;11.02;;
40871;SDS011;26591;43.264;26.940;2022-10-16T00:51:34;18.40;;;11.57;;
40871;SDS011;26591;43.264;26.940;2022-10-16T00:56:33;19.92;;;10.40;;
40871;SDS011;26591;43.264;26.940;2022-10-16T00:59:03;13.52;;;9.95;;
40871;SDS011;26591;43.264;26.940;2022-10-16T01:01:33;17.85;;;10.18;;
40871;SDS011;26591;43.264;26.940;2022-10-16T01:04:05;15.00;;;10.00;;
40871;SDS011;26591;43.264;26.940;2022-10-16T01:06:33;13.43;;;9.20;;
40871;SDS011;26591;43.264;26.940;2022-10-16T01:14:55;13.02;;;9.25;;
40871;SDS011;26591;43.264;26.940;2022-10-16T01:17:32;15.30;;;9.30;;
40871;SDS011;26591;43.264;26.940;2022-10-16T01:20:10;13.85;;;8.73;;
40871;SDS011;26591;43.264;26.940;2022-10-16T01:28:08;15.00;;;9.63;;
40871;SDS011;26591;43.264;26.940;2022-10-16T01:30:37;14.40;;;8.90;;
40871;SDS011;26591;43.264;26.940;2022-10-16T01:33:27;16.27;;;9.85;;
40871;SDS011;26591;43.264;26.940;2022-10-16T01:35:58;13.90;;;9.90;;
40871;SDS011;26591;43.264;26.940;2022-10-16T01:38:35;15.68;;;8.68;;
40871;SDS011;26591;43.264;26.940;2022-10-16T01:41:11;18.67;;;9.52;;
40871;SDS011;26591;43.264;26.940;2022-10-16T01:43:43;16.48;;;9.68;;
40871;SDS011;26591;43.264;26.940;2022-10-16T01:46:14;16.35;;;9.38;;
40871;SDS011;26591;43.264;26.940;2022-10-16T01:48:43;12.43;;;9.20;;
40871;SDS011;26591;43.264;26.940;2022-10-16T01:51:10;15.52;;;9.55;;
40871;SDS011;26591;43.264;26.940;2022-10-16T01:53:37;15.27;;;10.07;;
40871;SDS011;26591;43.264;26.940;2022-10-16T01:56:07;19.35;;;10.68;;
40871;SDS011;26591;43.264;26.940;2022-10-16T01:58:37;16.73;;;11.00;;
40871;SDS011;26591;43.264;26.940;2022-10-16T02:01:13;16.05;;;10.43;;
40871;SDS011;26591;43.264;26.940;2022-10-16T02:03:43;16.48;;;10.57;;
40871;SDS011;26591;43.264;26.940;2022-10-16T02:06:11;15.10;;;10.73;;
40871;SDS011;26591;43.264;26.940;2022-10-16T02:08:37;15.02;;;10.95;;
40871;SDS011;26591;43.264;26.940;2022-10-16T02:11:05;16.90;;;11.02;;
40871;SDS011;26591;43.264;26.940;2022-10-16T02:13:42;17.70;;;10.73;;
40871;SDS011;26591;43.264;26.940;2022-10-16T02:16:12;14.40;;;10.25;;
40871;SDS011;26591;43.264;26.940;2022-10-16T02:18:39;15.75;;;10.20;;
40871;SDS011;26591;43.264;26.940;2022-10-16T02:26:23;17.13;;;10.17;;
40871;SDS011;26591;43.264;26.940;2022-10-16T02:28:58;19.58;;;11.60;;
40871;SDS011;26591;43.264;26.940;2022-10-16T02:31:30;14.40;;;10.82;;
40871;SDS011;26591;43.264;26.940;2022-10-16T02:36:30;18.23;;;11.33;;
40871;SDS011;26591;43.264;26.940;2022-10-16T02:38:57;19.45;;;11.80;;
40871;SDS011;26591;43.264;26.940;2022-10-16T02:41:25;14.73;;;11.35;;
40871;SDS011;26591;43.264;26.940;2022-10-16T02:43:51;22.23;;;11.93;;
40871;SDS011;26591;43.264;26.940;2022-10-16T02:46:16;14.93;;;11.00;;
40871;SDS011;26591;43.264;26.940;2022-10-16T02:48:43;17.35;;;11.50;;
40871;SDS011;26591;43.264;26.940;2022-10-16T02:51:08;20.73;;;12.90;;
40871;SDS011;26591;43.264;26.940;2022-10-16T02:53:34;20.38;;;11.30;;
40871;SDS011;26591;43.264;26.940;2022-10-16T02:55:59;16.98;;;11.57;;
40871;SDS011;26591;43.264;26.940;2022-10-16T02:58:25;17.60;;;12.40;;
40871;SDS011;26591;43.264;26.940;2022-10-16T03:00:50;16.08;;;11.85;;
40871;SDS011;26591;43.264;26.940;2022-10-16T03:03:16;18.45;;;12.55;;
40871;SDS011;26591;43.264;26.940;2022-10-16T03:05:43;17.38;;;12.70;;
40871;SDS011;26591;43.264;26.940;2022-10-16T03:08:11;20.48;;;12.80;;
40871;SDS011;26591;43.264;26.940;2022-10-16T03:10:37;17.95;;;12.95;;
40871;SDS011;26591;43.264;26.940;2022-10-16T03:13:02;21.25;;;13.00;;
40871;SDS011;26591;43.264;26.940;2022-10-16T03:15:28;21.38;;;13.20;;
40871;SDS011;26591;43.264;26.940;2022-10-16T03:17:56;16.42;;;13.15;;
40871;SDS011;26591;43.264;26.940;2022-10-16T03:20:22;17.95;;;12.90;;
40871;SDS011;26591;43.264;26.940;2022-10-16T03:22:48;22.38;;;14.25;;
40871;SDS011;26591;43.264;26.940;2022-10-16T03:25:14;16.67;;;12.43;;
40871;SDS011;26591;43.264;26.940;2022-10-16T03:27:39;17.25;;;12.10;;
40871;SDS011;26591;43.264;26.940;2022-10-16T03:30:05;18.38;;;12.40;;
40871;SDS011;26591;43.264;26.940;2022-10-16T03:32:31;19.77;;;12.52;;
40871;SDS011;26591;43.264;26.940;2022-10-16T03:34:56;16.27;;;13.18;;
40871;SDS011;26591;43.264;26.940;2022-10-16T03:37:22;18.25;;;13.18;;
40871;SDS011;26591;43.264;26.940;2022-10-16T03:39:49;16.08;;;12.93;;
40871;SDS011;26591;43.264;26.940;2022-10-16T03:42:15;17.55;;;14.00;;
40871;SDS011;26591;43.264;26.940;2022-10-16T03:44:40;19.65;;;13.00;;
40871;SDS011;26591;43.264;26.940;2022-10-16T03:47:06;19.40;;;11.90;;
40871;SDS011;26591;43.264;26.940;2022-10-16T03:49:31;14.60;;;11.00;;
40871;SDS011;26591;43.264;26.940;2022-10-16T03:51:57;17.58;;;11.00;;
40871;SDS011;26591;43.264;26.940;2022-10-16T03:54:22;15.35;;;11.13;;
40871;SDS011;26591;43.264;26.940;2022-10-16T03:56:48;20.05;;;10.82;;
40871;SDS011;26591;43.264;26.940;2022-10-16T03:59:14;15.32;;;11.77;;
40871;SDS011;26591;43.264;26.940;2022-10-16T04:01:40;23.58;;;11.73;;
40871;SDS011;26591;43.264;26.940;2022-10-16T04:04:05;17.02;;;11.20;;
40871;SDS011;26591;43.264;26.940;2022-10-16T04:06:31;15.75;;;11.73;;
40871;SDS011;26591;43.264;26.940;2022-10-16T04:08:56;16.42;;;12.05;;
40871;SDS011;26591;43.264;26.940;2022-10-16T04:11:25;20.02;;;11.25;;
40871;SDS011;26591;43.264;26.940;2022-10-16T04:13:50;22.58;;;12.35;;
40871;SDS011;26591;43.264;26.940;2022-10-16T04:16:16;21.98;;;12.25;;
40871;SDS011;26591;43.264;26.940;2022-10-16T04:18:41;27.27;;;11.95;;
40871;SDS011;26591;43.264;26.940;2022-10-16T04:21:07;19.88;;;11.68;;
40871;SDS011;26591;43.264;26.940;2022-10-16T04:23:33;18.08;;;12.32;;
40871;SDS011;26591;43.264;26.940;2022-10-16T04:25:58;19.83;;;11.63;;
40871;SDS011;26591;43.264;26.940;2022-10-16T04:28:25;15.05;;;12.98;;
40871;SDS011;26591;43.264;26.940;2022-10-16T04:30:50;18.95;;;12.27;;
40871;SDS011;26591;43.264;26.940;2022-10-16T04:33:16;18.45;;;13.52;;
40871;SDS011;26591;43.264;26.940;2022-10-16T04:35:41;18.60;;;13.43;;
40871;SDS011;26591;43.264;26.940;2022-10-16T04:38:07;21.13;;;13.80;;
40871;SDS011;26591;43.264;26.940;2022-10-16T04:40:33;22.55;;;12.73;;
40871;SDS011;26591;43.264;26.940;2022-10-16T04:43:01;24.65;;;13.38;;
40871;SDS011;26591;43.264;26.940;2022-10-16T04:45:26;19.00;;;11.95;;
40871;SDS011;26591;43.264;26.940;2022-10-16T04:47:51;18.75;;;12.40;;
40871;SDS011;26591;43.264;26.940;2022-10-16T04:50:17;25.08;;;11.65;;
40871;SDS011;26591;43.264;26.940;2022-10-16T04:52:42;22.02;;;11.77;;
40871;SDS011;26591;43.264;26.940;2022-10-16T04:55:08;19.23;;;11.95;;
40871;SDS011;26591;43.264;26.940;2022-10-16T04:57:33;17.73;;;11.35;;
40871;SDS011;26591;43.264;26.940;2022-10-16T04:59:59;22.00;;;14.02;;
40871;SDS011;26591;43.264;26.940;2022-10-16T05:02:25;20.52;;;11.32;;
40871;SDS011;26591;43.264;26.940;2022-10-16T05:04:51;19.00;;;10.73;;
40871;SDS011;26591;43.264;26.940;2022-10-16T05:07:16;25.02;;;10.70;;
40871;SDS011;26591;43.264;26.940;2022-10-16T05:09:42;18.17;;;10.57;;
40871;SDS011;26591;43.264;26.940;2022-10-16T05:12:08;16.58;;;10.40;;
40871;SDS011;26591;43.264;26.940;2022-10-16T05:14:34;21.85;;;10.23;;
40871;SDS011;26591;43.264;26.940;2022-10-16T05:17:00;15.25;;;10.70;;
40871;SDS011;26591;43.264;26.940;2022-10-16T05:19:25;16.83;;;9.50;;
40871;SDS011;26591;43.264;26.940;2022-10-16T05:21:51;18.98;;;10.05;;
40871;SDS011;26591;43.264;26.940;2022-10-16T05:24:25;20.58;;;10.40;;
40871;SDS011;26591;43.264;26.940;2022-10-16T05:26:52;13.30;;;9.35;;
40871;SDS011;26591;43.264;26.940;2022-10-16T05:29:17;15.25;;;9.07;;
40871;SDS011;26591;43.264;26.940;2022-10-16T05:31:43;15.23;;;9.38;;
40871;SDS011;26591;43.264;26.940;2022-10-16T05:34:08;19.27;;;9.68;;
40871;SDS011;26591;43.264;26.940;2022-10-16T05:36:34;14.80;;;8.57;;
40871;SDS011;26591;43.264;26.940;2022-10-16T05:38:59;18.70;;;9.38;;
40871;SDS011;26591;43.264;26.940;2022-10-16T05:41:25;18.10;;;9.48;;
40871;SDS011;26591;43.264;26.940;2022-10-16T05:43:51;16.10;;;10.77;;
40871;SDS011;26591;43.264;26.940;2022-10-16T05:46:17;24.27;;;13.15;;
40871;SDS011;26591;43.264;26.940;2022-10-16T05:48:43;17.58;;;8.63;;
40871;SDS011;26591;43.264;26.940;2022-10-16T05:51:12;14.57;;;8.52;;
40871;SDS011;26591;43.264;26.940;2022-10-16T05:53:39;16.20;;;7.97;;
40871;SDS011;26591;43.264;26.940;2022-10-16T05:56:09;17.73;;;7.90;;
40871;SDS011;26591;43.264;26.940;2022-10-16T05:58:37;11.98;;;6.95;;
40871;SDS011;26591;43.264;26.940;2022-10-16T06:01:12;13.30;;;6.88;;
40871;SDS011;26591;43.264;26.940;2022-10-16T06:03:40;12.32;;;6.68;;
40871;SDS011;26591;43.264;26.940;2022-10-16T06:06:07;11.93;;;6.78;;
40871;SDS011;26591;43.264;26.940;2022-10-16T06:08:37;16.40;;;6.75;;
40871;SDS011;26591;43.264;26.940;2022-10-16T06:11:03;14.43;;;6.40;;
40871;SDS011;26591;43.264;26.940;2022-10-16T06:13:30;8.93;;;5.72;;
40871;SDS011;26591;43.264;26.940;2022-10-16T06:16:00;10.85;;;6.07;;
40871;SDS011;26591;43.264;26.940;2022-10-16T06:18:26;9.15;;;6.20;;
40871;SDS011;26591;43.264;26.940;2022-10-16T06:20:53;10.13;;;5.85;;
40871;SDS011;26591;43.264;26.940;2022-10-16T06:23:19;9.73;;;5.80;;
40871;SDS011;26591;43.264;26.940;2022-10-16T06:25:45;10.82;;;5.65;;
40871;SDS011;26591;43.264;26.940;2022-10-16T06:28:10;13.20;;;6.07;;
40871;SDS011;26591;43.264;26.940;2022-10-16T06:30:36;13.05;;;6.35;;
40871;SDS011;26591;43.264;26.940;2022-10-16T06:33:01;15.20;;;6.60;;
40871;SDS011;26591;43.264;26.940;2022-10-16T06:35:27;10.80;;;6.93;;
40871;SDS011;26591;43.264;26.940;2022-10-16T06:37:54;15.65;;;9.20;;
40871;SDS011;26591;43.264;26.940;2022-10-16T06:40:19;16.00;;;10.68;;
40871;SDS011;26591;43.264;26.940;2022-10-16T06:42:45;11.93;;;8.35;;
40871;SDS011;26591;43.264;26.940;2022-10-16T06:45:11;10.07;;;7.03;;
40871;SDS011;26591;43.264;26.940;2022-10-16T06:47:37;18.30;;;7.00;;
40871;SDS011;26591;43.264;26.940;2022-10-16T06:50:03;10.80;;;6.90;;
40871;SDS011;26591;43.264;26.940;2022-10-16T06:52:32;17.73;;;8.55;;
40871;SDS011;26591;43.264;26.940;2022-10-16T06:54:58;15.15;;;7.40;;
40871;SDS011;26591;43.264;26.940;2022-10-16T06:57:24;11.77;;;7.13;;
40871;SDS011;26591;43.264;26.940;2022-10-16T06:59:49;9.98;;;7.25;;
40871;SDS011;26591;43.264;26.940;2022-10-16T07:02:15;15.00;;;7.18;;
40871;SDS011;26591;43.264;26.940;2022-10-16T07:04:40;11.15;;;7.75;;
40871;SDS011;26591;43.264;26.940;2022-10-16T07:07:06;10.55;;;7.20;;
40871;SDS011;26591;43.264;26.940;2022-10-16T07:09:31;17.17;;;8.15;;
40871;SDS011;26591;43.264;26.940;2022-10-16T07:11:57;11.38;;;6.70;;
40871;SDS011;26591;43.264;26.940;2022-10-16T07:14:22;12.45;;;6.55;;
40871;SDS011;26591;43.264;26.940;2022-10-16T07:16:48;14.00;;;7.03;;
40871;SDS011;26591;43.264;26.940;2022-10-16T07:19:14;16.73;;;7.20;;
40871;SDS011;26591;43.264;26.940;2022-10-16T07:21:42;14.55;;;6.95;;
40871;SDS011;26591;43.264;26.940;2022-10-16T07:24:11;20.15;;;6.57;;
40871;SDS011;26591;43.264;26.940;2022-10-16T07:26:38;9.15;;;5.50;;
40871;SDS011;26591;43.264;26.940;2022-10-16T07:29:05;21.00;;;6.18;;
40871;SDS011;26591;43.264;26.940;2022-10-16T07:31:32;18.55;;;5.97;;
40871;SDS011;26591;43.264;26.940;2022-10-16T07:33:59;9.65;;;4.93;;
40871;SDS011;26591;43.264;26.940;2022-10-16T07:36:25;12.70;;;4.35;;
40871;SDS011;26591;43.264;26.940;2022-10-16T07:38:50;18.08;;;7.35;;
40871;SDS011;26591;43.264;26.940;2022-10-16T07:41:18;11.55;;;4.22;;
40871;SDS011;26591;43.264;26.940;2022-10-16T07:43:48;5.95;;;2.97;;
40871;SDS011;26591;43.264;26.940;2022-10-16T07:46:16;21.05;;;10.55;;
40871;SDS011;26591;43.264;26.940;2022-10-16T07:48:42;39.08;;;27.50;;
40871;SDS011;26591;43.264;26.940;2022-10-16T07:51:11;28.05;;;11.45;;
40871;SDS011;26591;43.264;26.940;2022-10-16T07:53:37;11.57;;;7.07;;
40871;SDS011;26591;43.264;26.940;2022-10-16T07:56:04;11.30;;;6.13;;
40871;SDS011;26591;43.264;26.940;2022-10-16T07:58:31;14.00;;;6.13;;
40871;SDS011;26591;43.264;26.940;2022-10-16T08:00:57;18.30;;;6.70;;
40871;SDS011;26591;43.264;26.940;2022-10-16T08:03:23;23.27;;;6.60;;
40871;SDS011;26591;43.264;26.940;2022-10-16T08:05:50;9.98;;;5.80;;
40871;SDS011;26591;43.264;26.940;2022-10-16T08:08:16;11.18;;;4.78;;
40871;SDS011;26591;43.264;26.940;2022-10-16T08:10:42;9.98;;;4.80;;
40871;SDS011;26591;43.264;26.940;2022-10-16T08:13:08;9.50;;;6.10;;
40871;SDS011;26591;43.264;26.940;2022-10-16T08:15:33;10.57;;;5.25;;
40871;SDS011;26591;43.264;26.940;2022-10-16T08:18:02;16.95;;;4.60;;
40871;SDS011;26591;43.264;26.940;2022-10-16T08:20:30;13.38;;;5.07;;
40871;SDS011;26591;43.264;26.940;2022-10-16T08:22:56;9.55;;;4.70;;
40871;SDS011;26591;43.264;26.940;2022-10-16T08:25:23;16.73;;;5.50;;
40871;SDS011;26591;43.264;26.940;2022-10-16T08:27:49;15.80;;;4.65;;
40871;SDS011;26591;43.264;26.940;2022-10-16T08:30:15;9.70;;;3.78;;
40871;SDS011;26591;43.264;26.940;2022-10-16T08:32:43;9.98;;;3.60;;
40871;SDS011;26591;43.264;26.940;2022-10-16T08:35:09;6.60;;;3.13;;
40871;SDS011;26591;43.264;26.940;2022-10-16T08:37:36;6.03;;;2.70;;
40871;SDS011;26591;43.264;26.940;2022-10-16T08:40:03;8.13;;;2.92;;
40871;SDS011;26591;43.264;26.940;2022-10-16T08:42:43;6.30;;;2.95;;
40871;SDS011;26591;43.264;26.940;2022-10-16T08:48:20;6.30;;;2.97;;
40871;SDS011;26591;43.264;26.940;2022-10-16T08:51:02;10.73;;;3.50;;
40871;SDS011;26591;43.264;26.940;2022-10-16T08:55:55;10.15;;;3.25;;
40871;SDS011;26591;43.264;26.940;2022-10-16T08:58:21;7.97;;;3.15;;
40871;SDS011;26591;43.264;26.940;2022-10-16T09:00:54;8.73;;;2.97;;
40871;SDS011;26591;43.264;26.940;2022-10-16T09:14:58;11.95;;;2.92;;
40871;SDS011;26591;43.264;26.940;2022-10-16T09:17:37;8.23;;;2.72;;
40871;SDS011;26591;43.264;26.940;2022-10-16T09:22:43;7.05;;;2.90;;
40871;SDS011;26591;43.264;26.940;2022-10-16T09:25:17;10.60;;;3.05;;
40871;SDS011;26591;43.264;26.940;2022-10-16T09:27:45;5.90;;;2.58;;
40871;SDS011;26591;43.264;26.940;2022-10-16T09:30:13;12.43;;;2.70;;
40871;SDS011;26591;43.264;26.940;2022-10-16T09:32:43;7.97;;;2.78;;
40871;SDS011;26591;43.264;26.940;2022-10-16T09:35:11;9.93;;;3.60;;
40871;SDS011;26591;43.264;26.940;2022-10-16T09:37:42;10.88;;;3.60;;
40871;SDS011;26591;43.264;26.940;2022-10-16T09:40:24;11.18;;;4.50;;
40871;SDS011;26591;43.264;26.940;2022-10-16T09:45:39;10.68;;;4.28;;
40871;SDS011;26591;43.264;26.940;2022-10-16T09:48:17;7.68;;;3.63;;
40871;SDS011;26591;43.264;26.940;2022-10-16T09:50:54;14.63;;;7.93;;
40871;SDS011;26591;43.264;26.940;2022-10-16T09:53:21;10.82;;;3.30;;
40871;SDS011;26591;43.264;26.940;2022-10-16T09:55:48;8.68;;;4.03;;
40871;SDS011;26591;43.264;26.940;2022-10-16T09:58:15;4.22;;;2.65;;
40871;SDS011;26591;43.264;26.940;2022-10-16T10:00:41;9.35;;;5.45;;
40871;SDS011;26591;43.264;26.940;2022-10-16T10:03:15;8.00;;;3.63;;
40871;SDS011;26591;43.264;26.940;2022-10-16T10:06:28;5.90;;;2.95;;
40871;SDS011;26591;43.264;26.940;2022-10-16T10:09:32;5.40;;;2.92;;
40871;SDS011;26591;43.264;26.940;2022-10-16T10:11:59;7.85;;;3.20;;
40871;SDS011;26591;43.264;26.940;2022-10-16T10:17:28;6.28;;;3.15;;
40871;SDS011;26591;43.264;26.940;2022-10-16T10:19:54;6.97;;;2.92;;
40871;SDS011;26591;43.264;26.940;2022-10-16T10:22:46;10.45;;;3.13;;
40871;SDS011;26591;43.264;26.940;2022-10-16T10:27:44;6.60;;;2.92;;
40871;SDS011;26591;43.264;26.940;2022-10-16T10:38:45;5.88;;;2.72;;
40871;SDS011;26591;43.264;26.940;2022-10-16T10:46:57;5.95;;;2.70;;
40871;SDS011;26591;43.264;26.940;2022-10-16T10:49:54;4.05;;;2.40;;
40871;SDS011;26591;43.264;26.940;2022-10-16T11:06:26;4.80;;;2.15;;
40871;SDS011;26591;43.264;26.940;2022-10-16T11:09:00;7.03;;;2.30;;
40871;SDS011;26591;43.264;26.940;2022-10-16T11:11:38;5.40;;;2.30;;
40871;SDS011;26591;43.264;26.940;2022-10-16T11:14:22;7.30;;;2.35;;
40871;SDS011;26591;43.264;26.940;2022-10-16T11:19:51;5.38;;;2.25;;
40871;SDS011;26591;43.264;26.940;2022-10-16T11:22:45;6.35;;;2.42;;
40871;SDS011;26591;43.264;26.940;2022-10-16T11:25:20;5.93;;;2.10;;
40871;SDS011;26591;43.264;26.940;2022-10-16T11:30:39;5.20;;;1.88;;
40871;SDS011;26591;43.264;26.940;2022-10-16T11:38:53;6.90;;;1.95;;
40871;SDS011;26591;43.264;26.940;2022-10-16T11:46:32;6.20;;;2.20;;
40871;SDS011;26591;43.264;26.940;2022-10-16T11:49:14;7.63;;;1.98;;
40871;SDS011;26591;43.264;26.940;2022-10-16T11:54:37;6.97;;;2.00;;
40871;SDS011;26591;43.264;26.940;2022-10-16T11:57:11;4.90;;;1.90;;
40871;SDS011;26591;43.264;26.940;2022-10-16T12:08:17;4.20;;;2.40;;
40871;SDS011;26591;43.264;26.940;2022-10-16T12:10:44;6.35;;;1.75;;
40871;SDS011;26591;43.264;26.940;2022-10-16T12:16:19;5.65;;;1.67;;
40871;SDS011;26591;43.264;26.940;2022-10-16T12:18:47;5.35;;;1.77;;
40871;SDS011;26591;43.264;26.940;2022-10-16T12:21:14;7.47;;;1.85;;
40871;SDS011;26591;43.264;26.940;2022-10-16T12:26:23;4.22;;;1.60;;
40871;SDS011;26591;43.264;26.940;2022-10-16T12:28:50;11.00;;;1.92;;
40871;SDS011;26591;43.264;26.940;2022-10-16T12:31:16;7.65;;;1.80;;
40871;SDS011;26591;43.264;26.940;2022-10-16T12:33:43;14.23;;;2.03;;
40871;SDS011;26591;43.264;26.940;2022-10-16T12:36:52;7.60;;;2.13;;
40871;SDS011;26591;43.264;26.940;2022-10-16T12:42:45;5.28;;;2.38;;
40871;SDS011;26591;43.264;26.940;2022-10-16T12:47:49;8.55;;;1.88;;
40871;SDS011;26591;43.264;26.940;2022-10-16T12:53:03;6.70;;;2.05;;
40871;SDS011;26591;43.264;26.940;2022-10-16T12:55:45;5.35;;;1.85;;
40871;SDS011;26591;43.264;26.940;2022-10-16T13:06:36;4.03;;;1.50;;
40871;SDS011;26591;43.264;26.940;2022-10-16T13:09:33;8.32;;;1.88;;
40871;SDS011;26591;43.264;26.940;2022-10-16T13:12:07;6.68;;;2.10;;
40871;SDS011;26591;43.264;26.940;2022-10-16T13:23:29;9.13;;;2.15;;
40871;SDS011;26591;43.264;26.940;2022-10-16T13:28:46;6.43;;;2.30;;
40871;SDS011;26591;43.264;26.940;2022-10-16T13:31:17;7.97;;;2.15;;
40871;SDS011;26591;43.264;26.940;2022-10-16T13:33:47;7.22;;;2.10;;
40871;SDS011;26591;43.264;26.940;2022-10-16T13:36:51;4.50;;;1.88;;
40871;SDS011;26591;43.264;26.940;2022-10-16T13:41:46;4.03;;;2.03;;
40871;SDS011;26591;43.264;26.940;2022-10-16T13:44:35;4.50;;;2.33;;
40871;SDS011;26591;43.264;26.940;2022-10-16T13:47:12;6.38;;;2.20;;
40871;SDS011;26591;43.264;26.940;2022-10-16T13:49:41;6.30;;;2.47;;
40871;SDS011;26591;43.264;26.940;2022-10-16T13:52:15;4.03;;;2.40;;
40871;SDS011;26591;43.264;26.940;2022-10-16T13:54:45;5.43;;;2.22;;
40871;SDS011;26591;43.264;26.940;2022-10-16T13:57:13;7.05;;;2.50;;
40871;SDS011;26591;43.264;26.940;2022-10-16T13:59:39;6.70;;;2.28;;
40871;SDS011;26591;43.264;26.940;2022-10-16T14:02:49;3.25;;;1.90;;
40871;SDS011;26591;43.264;26.940;2022-10-16T14:04:54;8.45;;;1.77;;
40871;SDS011;26591;43.264;26.940;2022-10-16T14:07:30;9.13;;;2.00;;
40871;SDS011;26591;43.264;26.940;2022-10-16T14:10:03;6.47;;;2.13;;
40871;SDS011;26591;43.264;26.940;2022-10-16T14:12:31;11.57;;;2.20;;
40871;SDS011;26591;43.264;26.940;2022-10-16T14:14:57;8.23;;;2.10;;
40871;SDS011;26591;43.264;26.940;2022-10-16T14:17:28;5.30;;;2.25;;
40871;SDS011;26591;43.264;26.940;2022-10-16T14:20:00;5.53;;;1.92;;
40871;SDS011;26591;43.264;26.940;2022-10-16T14:22:32;6.45;;;2.10;;
40871;SDS011;26591;43.264;26.940;2022-10-16T14:25:02;4.50;;;2.20;;
40871;SDS011;26591;43.264;26.940;2022-10-16T14:30:29;6.30;;;2.80;;
40871;SDS011;26591;43.264;26.940;2022-10-16T14:33:01;14.15;;;3.38;;
40871;SDS011;26591;43.264;26.940;2022-10-16T14:35:30;11.63;;;3.25;;
40871;SDS011;26591;43.264;26.940;2022-10-16T14:38:00;6.93;;;2.40;;
40871;SDS011;26591;43.264;26.940;2022-10-16T14:40:32;4.00;;;2.75;;
40871;SDS011;26591;43.264;26.940;2022-10-16T14:43:00;11.57;;;3.08;;
40871;SDS011;26591;43.264;26.940;2022-10-16T14:45:28;8.07;;;2.90;;
40871;SDS011;26591;43.264;26.940;2022-10-16T14:47:58;12.75;;;8.10;;
40871;SDS011;26591;43.264;26.940;2022-10-16T14:50:28;11.40;;;6.20;;
40871;SDS011;26591;43.264;26.940;2022-10-16T14:52:54;11.30;;;4.82;;
40871;SDS011;26591;43.264;26.940;2022-10-16T14:55:20;12.27;;;6.20;;
40871;SDS011;26591;43.264;26.940;2022-10-16T14:57:45;7.30;;;3.80;;
40871;SDS011;26591;43.264;26.940;2022-10-16T15:00:16;12.20;;;5.32;;
40871;SDS011;26591;43.264;26.940;2022-10-16T15:02:44;8.95;;;3.97;;
40871;SDS011;26591;43.264;26.940;2022-10-16T15:05:24;7.70;;;3.58;;
40871;SDS011;26591;43.264;26.940;2022-10-16T15:07:51;9.00;;;3.78;;
40871;SDS011;26591;43.264;26.940;2022-10-16T15:10:18;8.82;;;4.88;;
40871;SDS011;26591;43.264;26.940;2022-10-16T15:12:46;7.95;;;3.60;;
40871;SDS011;26591;43.264;26.940;2022-10-16T15:17:46;12.77;;;4.55;;
40871;SDS011;26591;43.264;26.940;2022-10-16T15:20:12;7.32;;;2.70;;
40871;SDS011;26591;43.264;26.940;2022-10-16T15:22:38;8.07;;;3.67;;
40871;SDS011;26591;43.264;26.940;2022-10-16T15:28:08;11.85;;;5.75;;
40871;SDS011;26591;43.264;26.940;2022-10-16T15:30:35;7.75;;;3.60;;
40871;SDS011;26591;43.264;26.940;2022-10-16T15:33:02;12.55;;;4.68;;
40871;SDS011;26591;43.264;26.940;2022-10-16T15:35:28;16.30;;;4.18;;
40871;SDS011;26591;43.264;26.940;2022-10-16T15:37:53;11.48;;;4.85;;
40871;SDS011;26591;43.264;26.940;2022-10-16T15:40:22;15.73;;;4.40;;
40871;SDS011;26591;43.264;26.940;2022-10-16T15:42:48;12.98;;;5.20;;
40871;SDS011;26591;43.264;26.940;2022-10-16T15:45:15;22.80;;;10.90;;
40871;SDS011;26591;43.264;26.940;2022-10-16T15:47:41;17.00;;;7.50;;
40871;SDS011;26591;43.264;26.940;2022-10-16T15:50:11;19.50;;;6.88;;
40871;SDS011;26591;43.264;26.940;2022-10-16T15:52:39;15.15;;;5.30;;
40871;SDS011;26591;43.264;26.940;2022-10-16T15:55:06;13.57;;;6.55;;
40871;SDS011;26591;43.264;26.940;2022-10-16T15:57:33;18.85;;;9.43;;
40871;SDS011;26591;43.264;26.940;2022-10-16T15:59:58;16.10;;;7.35;;
40871;SDS011;26591;43.264;26.940;2022-10-16T16:02:24;19.08;;;8.98;;
40871;SDS011;26591;43.264;26.940;2022-10-16T16:04:50;22.25;;;11.07;;
40871;SDS011;26591;43.264;26.940;2022-10-16T16:07:15;33.50;;;12.13;;
40871;SDS011;26591;43.264;26.940;2022-10-16T16:09:41;29.15;;;14.88;;
40871;SDS011;26591;43.264;26.940;2022-10-16T16:12:06;36.13;;;13.15;;
40871;SDS011;26591;43.264;26.940;2022-10-16T16:14:32;28.52;;;17.90;;
40871;SDS011;26591;43.264;26.940;2022-10-16T16:16:57;28.98;;;13.98;;
40871;SDS011;26591;43.264;26.940;2022-10-16T16:19:23;19.25;;;11.32;;
40871;SDS011;26591;43.264;26.940;2022-10-16T16:21:49;20.40;;;9.15;;
40871;SDS011;26591;43.264;26.940;2022-10-16T16:24:15;12.63;;;7.60;;
40871;SDS011;26591;43.264;26.940;2022-10-16T16:26:40;13.85;;;6.32;;
40871;SDS011;26591;43.264;26.940;2022-10-16T16:29:12;16.35;;;7.82;;
40871;SDS011;26591;43.264;26.940;2022-10-16T16:34:13;26.23;;;8.77;;
40871;SDS011;26591;43.264;26.940;2022-10-16T16:36:49;11.90;;;6.70;;
40871;SDS011;26591;43.264;26.940;2022-10-16T16:41:44;11.77;;;6.43;;
40871;SDS011;26591;43.264;26.940;2022-10-16T16:44:10;16.00;;;7.78;;
40871;SDS011;26591;43.264;26.940;2022-10-16T16:46:37;14.98;;;6.88;;
40871;SDS011;26591;43.264;26.940;2022-10-16T16:49:05;16.95;;;5.72;;
40871;SDS011;26591;43.264;26.940;2022-10-16T16:51:31;11.45;;;6.07;;
40871;SDS011;26591;43.264;26.940;2022-10-16T16:53:58;14.55;;;5.45;;
40871;SDS011;26591;43.264;26.940;2022-10-16T16:56:24;19.00;;;6.15;;
40871;SDS011;26591;43.264;26.940;2022-10-16T16:58:52;25.73;;;14.18;;
40871;SDS011;26591;43.264;26.940;2022-10-16T17:01:20;21.40;;;11.95;;
40871;SDS011;26591;43.264;26.940;2022-10-16T17:03:46;16.08;;;10.55;;
40871;SDS011;26591;43.264;26.940;2022-10-16T17:06:15;14.95;;;9.20;;
40871;SDS011;26591;43.264;26.940;2022-10-16T17:08:41;12.43;;;6.15;;
40871;SDS011;26591;43.264;26.940;2022-10-16T17:11:11;14.75;;;6.10;;
40871;SDS011;26591;43.264;26.940;2022-10-16T17:13:45;12.90;;;5.00;;
40871;SDS011;26591;43.264;26.940;2022-10-16T17:16:11;12.10;;;5.18;;